Time;durP1;ratioP1;P1;durP2;ratioP2;P2;SDS_P1;SDS_P2;PMS_P1;PMS_P2;Temp;Humidity;BMP_temperature;BMP_pressure;BME280_temperature;BME280_humidity;BME280_pressure;Samples;Min_cycle;Max_cycle;Signal;HPM_P1;HPM_P2
2024/01/01 00:01:30;;;;;;;20.30;8.18;;;7.40;99.90;;;;;;5057459;28;20070;-42
2024/01/01 00:03:56;;;;;;;16.75;7.80;;;7.40;99.90;;;;;;5055947;28;20017;-44
2024/01/01 00:06:21;;;;;;;21.25;7.57;;;7.40;99.90;;;;;;5056914;28;20036;-43
2024/01/01 00:08:47;;;;;;;15.38;8.20;;;7.40;99.90;;;;;;5055157;28;20047;-43
2024/01/01 00:11:12;;;;;;;19.13;8.85;;;7.40;99.90;;;;;;5058276;28;20063;-44
2024/01/01 00:13:38;;;;;;;21.88;9.43;;;7.40;99.90;;;;;;5056483;28;20035;-44
2024/01/01 00:16:04;;;;;;;22.33;9.15;;;7.40;99.90;;;;;;5057058;28;20021;-45
2024/01/01 00:18:30;;;;;;;19.30;9.48;;;7.40;99.90;;;;;;5056463;28;20543;-43
2024/01/01 00:20:55;;;;;;;19.35;8.30;;;7.30;99.90;;;;;;5055239;28;20017;-45
2024/01/01 00:23:21;;;;;;;20.83;8.18;;;7.30;99.90;;;;;;5057443;28;20527;-45
2024/01/01 00:25:46;;;;;;;17.20;8.77;;;7.40;99.90;;;;;;5054225;28;20573;-43
2024/01/01 00:28:12;;;;;;;19.40;9.00;;;7.40;99.90;;;;;;5060069;28;20020;-45
2024/01/01 00:30:38;;;;;;;20.38;9.48;;;7.30;99.90;;;;;;5060525;28;20107;-44
2024/01/01 00:33:04;;;;;;;19.35;8.18;;;7.40;99.90;;;;;;5061841;28;20025;-45
2024/01/01 00:35:29;;;;;;;24.67;10.23;;;7.40;99.90;;;;;;5060917;28;20032;-46
2024/01/01 00:37:55;;;;;;;17.60;7.10;;;7.40;99.90;;;;;;5060223;28;20029;-43
2024/01/01 00:40:21;;;;;;;16.45;7.70;;;7.40;99.90;;;;;;5063040;28;20021;-45
2024/01/01 00:42:49;;;;;;;17.45;7.25;;;7.40;99.90;;;;;;5059845;28;20116;-46
2024/01/01 00:45:15;;;;;;;20.20;7.13;;;7.30;99.90;;;;;;5063349;28;20361;-44
2024/01/01 00:47:40;;;;;;;11.98;6.07;;;7.40;99.90;;;;;;5060233;28;20040;-44
2024/01/01 00:50:06;;;;;;;16.50;6.38;;;7.30;99.90;;;;;;5061810;28;20394;-46
2024/01/01 00:52:32;;;;;;;13.60;6.85;;;7.40;99.90;;;;;;5061849;28;20044;-44
2024/01/01 00:54:57;;;;;;;14.82;6.25;;;7.30;99.90;;;;;;5058722;28;20013;-44
2024/01/01 00:57:23;;;;;;;14.43;6.38;;;7.30;99.90;;;;;;5063054;28;20028;-43
2024/01/01 00:59:49;;;;;;;13.23;6.40;;;7.30;99.90;;;;;;5059517;28;20029;-44
2024/01/01 01:02:14;;;;;;;10.10;5.40;;;7.30;99.90;;;;;;5058382;28;20381;-44
2024/01/01 01:04:45;;;;;;;16.95;5.30;;;7.40;99.90;;;;;;5059766;28;20027;-45
2024/01/01 01:07:11;;;;;;;13.75;5.45;;;7.40;99.90;;;;;;5062470;28;20033;-44
2024/01/01 01:09:40;;;;;;;10.70;5.38;;;7.40;99.90;;;;;;5061441;28;20036;-44
2024/01/01 01:12:06;;;;;;;12.68;5.80;;;7.40;99.90;;;;;;5061607;28;20021;-44
2024/01/01 01:14:32;;;;;;;12.93;5.30;;;7.40;99.90;;;;;;5060624;28;20032;-44
2024/01/01 01:16:57;;;;;;;13.55;4.80;;;7.30;99.90;;;;;;5060457;28;20028;-42
2024/01/01 01:19:23;;;;;;;11.60;4.63;;;7.40;99.90;;;;;;5062795;28;20031;-44
2024/01/01 01:21:48;;;;;;;14.02;4.50;;;7.40;99.90;;;;;;5058507;28;20473;-42
2024/01/01 01:24:15;;;;;;;11.60;4.50;;;7.40;99.90;;;;;;5062675;28;20100;-42
2024/01/01 01:26:42;;;;;;;14.68;4.40;;;7.40;99.90;;;;;;5059926;28;20043;-44
2024/01/01 01:29:09;;;;;;;17.40;4.93;;;7.40;99.90;;;;;;5060304;28;20025;-43
2024/01/01 01:31:35;;;;;;;8.93;4.43;;;7.40;99.90;;;;;;5061866;28;20166;-44
2024/01/01 01:34:01;;;;;;;13.48;4.40;;;7.40;99.90;;;;;;5059561;28;20100;-44
2024/01/01 01:36:26;;;;;;;8.13;4.20;;;7.50;99.90;;;;;;5062993;28;20091;-42
2024/01/01 01:38:52;;;;;;;9.00;3.92;;;7.40;99.90;;;;;;5059227;28;20747;-45
2024/01/01 01:41:18;;;;;;;9.02;4.30;;;7.50;99.90;;;;;;5063137;28;20091;-45
2024/01/01 01:43:43;;;;;;;13.70;4.85;;;7.40;99.90;;;;;;5060917;28;20028;-45
2024/01/01 01:46:09;;;;;;;12.35;4.80;;;7.40;99.90;;;;;;5063083;28;20080;-46
2024/01/01 01:48:35;;;;;;;10.02;4.47;;;7.50;99.90;;;;;;5062644;28;20247;-44
2024/01/01 01:51:02;;;;;;;7.57;3.90;;;7.50;99.90;;;;;;5062147;28;20062;-45
2024/01/01 01:53:29;;;;;;;11.40;4.97;;;7.50;99.90;;;;;;5064021;28;20024;-44
2024/01/01 01:55:57;;;;;;;10.90;4.80;;;7.60;99.90;;;;;;5051426;28;20120;-44
2024/01/01 01:58:23;;;;;;;11.90;4.53;;;7.60;99.90;;;;;;5062523;28;20020;-43
2024/01/01 02:00:50;;;;;;;12.88;4.75;;;7.60;99.90;;;;;;5060201;28;20582;-46
2024/01/01 02:03:16;;;;;;;9.93;4.60;;;7.60;99.90;;;;;;5052133;28;20482;-44
2024/01/01 02:05:43;;;;;;;13.20;4.30;;;7.60;99.90;;;;;;5060742;28;20040;-45
2024/01/01 02:08:09;;;;;;;6.88;4.07;;;7.70;99.90;;;;;;5061842;28;20036;-44
2024/01/01 02:10:35;;;;;;;13.57;5.82;;;7.60;99.90;;;;;;5062958;28;20078;-45
2024/01/01 02:13:00;;;;;;;10.55;4.30;;;7.60;99.90;;;;;;5062080;28;20021;-47
2024/01/01 02:15:26;;;;;;;10.88;4.57;;;7.70;99.90;;;;;;5064172;28;20016;-47
2024/01/01 02:17:52;;;;;;;9.38;4.78;;;7.70;99.90;;;;;;5060877;28;20086;-46
2024/01/01 02:20:17;;;;;;;8.35;3.65;;;7.70;99.90;;;;;;5064332;28;20020;-45
2024/01/01 02:22:43;;;;;;;9.38;3.97;;;7.70;99.90;;;;;;5062704;28;20103;-45
2024/01/01 02:25:09;;;;;;;13.77;4.95;;;7.70;99.90;;;;;;5062853;28;20071;-45
2024/01/01 02:27:39;;;;;;;9.43;4.18;;;7.60;99.90;;;;;;5062985;28;20037;-46
2024/01/01 02:30:10;;;;;;;12.63;4.95;;;7.60;99.90;;;;;;5062361;28;20033;-44
2024/01/01 02:32:39;;;;;;;11.95;4.47;;;7.60;99.90;;;;;;5063553;28;20031;-43
2024/01/01 02:35:07;;;;;;;15.35;5.40;;;7.60;99.90;;;;;;5062387;28;20028;-43
2024/01/01 02:37:33;;;;;;;11.23;4.40;;;7.60;99.90;;;;;;5063521;28;20040;-44
2024/01/01 02:40:00;;;;;;;11.10;4.50;;;7.60;99.90;;;;;;5061865;28;20420;-46
2024/01/01 02:42:27;;;;;;;11.43;5.32;;;7.60;99.90;;;;;;5063900;28;20067;-46
2024/01/01 02:44:52;;;;;;;10.13;4.43;;;7.60;99.90;;;;;;5061113;28;20068;-44
2024/01/01 02:47:18;;;;;;;9.85;4.65;;;7.50;99.90;;;;;;5062441;28;20048;-45
2024/01/01 02:49:44;;;;;;;11.68;4.88;;;7.50;99.90;;;;;;5062251;28;20088;-46
2024/01/01 02:52:09;;;;;;;9.43;3.80;;;7.60;99.90;;;;;;5063157;28;20045;-46
2024/01/01 02:54:35;;;;;;;9.68;4.32;;;7.60;99.90;;;;;;5063684;28;20028;-44
2024/01/01 02:57:00;;;;;;;10.13;4.70;;;7.60;99.90;;;;;;5061781;28;20104;-46
2024/01/01 02:59:26;;;;;;;10.85;4.82;;;7.50;99.90;;;;;;5063604;28;20096;-43
2024/01/01 03:01:51;;;;;;;10.15;4.25;;;7.50;99.90;;;;;;5061348;28;20494;-45
2024/01/01 03:04:17;;;;;;;9.68;3.78;;;7.60;99.90;;;;;;5064079;28;20021;-46
2024/01/01 03:06:43;;;;;;;7.40;4.43;;;7.50;99.90;;;;;;5062717;28;20426;-48
2024/01/01 03:09:08;;;;;;;6.93;4.15;;;7.50;99.90;;;;;;5063196;28;20029;-44
2024/01/01 03:11:34;;;;;;;13.52;5.53;;;7.60;99.90;;;;;;5064191;28;20039;-44
2024/01/01 03:14:00;;;;;;;11.52;3.92;;;7.60;99.90;;;;;;5061717;28;20071;-43
2024/01/01 03:16:25;;;;;;;8.77;4.10;;;7.70;99.90;;;;;;5063788;28;20040;-45
2024/01/01 03:18:51;;;;;;;10.30;3.92;;;7.70;99.90;;;;;;5061368;28;20416;-45
2024/01/01 03:21:16;;;;;;;7.60;3.75;;;7.70;99.90;;;;;;5063734;28;20020;-45
2024/01/01 03:23:42;;;;;;;10.10;3.42;;;7.70;99.90;;;;;;5062658;28;20044;-47
2024/01/01 03:26:08;;;;;;;9.80;4.00;;;7.80;99.90;;;;;;5062550;28;20478;-46
2024/01/01 03:28:34;;;;;;;10.52;4.03;;;7.80;99.90;;;;;;5063073;28;20043;-44
2024/01/01 03:31:00;;;;;;;7.38;3.83;;;7.80;99.90;;;;;;5061240;28;20021;-45
2024/01/01 03:33:27;;;;;;;9.45;4.10;;;7.80;99.90;;;;;;5063581;28;20016;-44
2024/01/01 03:35:52;;;;;;;12.02;4.32;;;7.80;99.90;;;;;;5061352;28;20050;-44
2024/01/01 03:38:18;;;;;;;7.88;3.95;;;7.80;99.90;;;;;;5063357;28;20060;-47
2024/01/01 03:40:44;;;;;;;18.02;4.78;;;7.80;99.90;;;;;;5062207;28;20036;-43
2024/01/01 03:43:09;;;;;;;13.30;5.22;;;7.90;99.90;;;;;;5063130;28;20075;-44
2024/01/01 03:45:35;;;;;;;8.00;3.83;;;7.90;99.90;;;;;;5062864;28;20112;-47
2024/01/01 03:48:02;;;;;;;6.75;3.75;;;7.90;99.90;;;;;;5061503;28;20112;-43
2024/01/01 03:50:27;;;;;;;9.60;4.07;;;7.90;99.90;;;;;;5063865;28;20107;-46
2024/01/01 03:52:54;;;;;;;10.57;4.60;;;7.80;99.90;;;;;;5061603;28;20488;-43
2024/01/01 03:55:19;;;;;;;7.63;3.38;;;7.80;99.90;;;;;;5063618;28;20021;-44
2024/01/01 03:57:45;;;;;;;9.82;4.30;;;7.80;99.90;;;;;;5062104;28;20027;-43
2024/01/01 04:00:14;;;;;;;6.88;4.07;;;7.70;99.90;;;;;;5061721;28;20446;-46
2024/01/01 04:02:40;;;;;;;7.35;3.58;;;7.80;99.90;;;;;;5066399;28;20043;-44
2024/01/01 04:05:08;;;;;;;9.10;3.90;;;7.70;99.90;;;;;;5066340;28;20086;-43
2024/01/01 04:07:34;;;;;;;8.70;3.90;;;7.70;99.90;;;;;;5067447;28;20047;-44
2024/01/01 04:10:02;;;;;;;9.18;3.90;;;7.70;99.90;;;;;;5066192;28;20066;-44
2024/01/01 04:12:27;;;;;;;11.05;4.65;;;7.70;99.90;;;;;;5068395;28;20024;-45
2024/01/01 04:14:53;;;;;;;7.75;4.28;;;7.60;99.90;;;;;;5065949;28;20449;-44
2024/01/01 04:17:19;;;;;;;10.73;4.20;;;7.60;99.90;;;;;;5067978;28;20111;-45
2024/01/01 04:19:47;;;;;;;7.28;3.97;;;7.60;99.90;;;;;;5067200;28;20115;-46
2024/01/01 04:22:18;;;;;;;12.18;4.85;;;7.60;99.90;;;;;;5066394;28;20016;-45
2024/01/01 04:24:43;;;;;;;14.05;4.60;;;7.60;99.90;;;;;;5067838;28;20090;-44
2024/01/01 04:27:09;;;;;;;9.73;3.95;;;7.60;99.90;;;;;;5067206;28;20013;-44
2024/01/01 04:29:34;;;;;;;11.43;4.65;;;7.60;99.90;;;;;;5068095;28;20021;-44
2024/01/01 04:32:01;;;;;;;10.70;5.13;;;7.60;99.90;;;;;;5066072;28;20052;-46
2024/01/01 04:34:27;;;;;;;8.75;3.90;;;7.60;99.90;;;;;;5065033;28;20252;-45
2024/01/01 04:36:52;;;;;;;8.95;4.03;;;7.60;99.90;;;;;;5064717;28;20021;-43
2024/01/01 04:39:18;;;;;;;11.90;3.85;;;7.60;99.90;;;;;;5067594;28;20020;-43
2024/01/01 04:41:43;;;;;;;11.55;3.75;;;7.60;99.90;;;;;;5067384;28;20440;-46
2024/01/01 04:44:09;;;;;;;10.00;4.30;;;7.60;99.90;;;;;;5062807;28;20025;-42
2024/01/01 04:46:35;;;;;;;10.18;4.40;;;7.60;99.90;;;;;;5068009;28;20108;-43
2024/01/01 04:49:00;;;;;;;7.97;4.50;;;7.60;99.90;;;;;;5065999;28;20103;-43
2024/01/01 04:51:26;;;;;;;8.02;3.40;;;7.60;99.90;;;;;;5068137;28;20093;-43
2024/01/01 04:53:51;;;;;;;12.77;4.43;;;7.70;99.90;;;;;;5066819;28;20024;-45
2024/01/01 04:56:17;;;;;;;6.32;3.55;;;7.60;99.90;;;;;;5068324;28;20020;-43
2024/01/01 04:58:46;;;;;;;11.13;4.10;;;7.70;99.90;;;;;;5067620;28;20052;-44
2024/01/01 05:01:11;;;;;;;12.25;4.15;;;7.70;99.90;;;;;;5067239;28;20035;-43
2024/01/01 05:03:37;;;;;;;13.05;4.05;;;7.70;99.90;;;;;;5067852;28;20265;-47
2024/01/01 05:06:02;;;;;;;11.63;4.50;;;7.70;99.90;;;;;;5066726;28;20568;-43
2024/01/01 05:08:28;;;;;;;11.20;4.15;;;7.60;99.90;;;;;;5068088;28;20024;-44
2024/01/01 05:10:54;;;;;;;8.68;3.70;;;7.60;99.90;;;;;;5066878;28;20032;-45
2024/01/01 05:13:19;;;;;;;12.95;4.03;;;7.60;99.90;;;;;;5067898;28;20095;-42
2024/01/01 05:15:45;;;;;;;7.60;3.45;;;7.60;99.90;;;;;;5068239;28;20029;-44
2024/01/01 05:18:10;;;;;;;17.90;4.90;;;7.60;99.90;;;;;;5065409;28;20497;-43
2024/01/01 05:20:36;;;;;;;8.52;4.03;;;7.70;99.90;;;;;;5068228;28;20079;-43
2024/01/01 05:23:02;;;;;;;8.60;4.07;;;7.70;99.90;;;;;;5067183;28;20079;-45
2024/01/01 05:25:27;;;;;;;8.90;4.10;;;7.70;99.90;;;;;;5068221;28;20035;-42
2024/01/01 05:27:53;;;;;;;13.82;4.53;;;7.70;99.90;;;;;;5065547;28;20029;-46
2024/01/01 05:30:19;;;;;;;9.85;3.95;;;7.60;99.90;;;;;;5068418;28;20471;-44
2024/01/01 05:32:45;;;;;;;10.20;4.45;;;7.60;99.90;;;;;;5068082;28;20025;-43
2024/01/01 05:35:11;;;;;;;10.10;4.15;;;7.60;99.90;;;;;;5066189;28;20036;-43
2024/01/01 05:38:29;;;;;;;10.65;4.13;;;7.60;99.90;;;;;;5125449;27;20130;-42
2024/01/01 05:40:55;;;;;;;10.27;4.28;;;7.50;99.90;;;;;;5122877;28;20027;-42
2024/01/01 05:43:23;;;;;;;12.68;4.20;;;7.60;99.90;;;;;;5124175;28;20357;-43
2024/01/01 05:45:49;;;;;;;13.43;4.70;;;7.60;99.90;;;;;;5111826;28;20027;-41
2024/01/01 05:48:15;;;;;;;17.27;5.38;;;7.60;99.90;;;;;;5109937;28;20022;-42
2024/01/01 05:50:40;;;;;;;15.35;4.43;;;7.60;99.90;;;;;;5108798;28;20466;-43
2024/01/01 05:53:06;;;;;;;8.45;4.43;;;7.60;99.90;;;;;;5111718;28;20451;-43
2024/01/01 05:55:33;;;;;;;11.73;4.63;;;7.60;99.90;;;;;;5123955;28;20023;-43
2024/01/01 05:57:58;;;;;;;13.32;4.70;;;7.60;99.90;;;;;;5122515;28;20094;-43
2024/01/01 06:00:25;;;;;;;9.80;4.10;;;7.60;99.90;;;;;;5124206;28;20099;-44
2024/01/01 06:02:51;;;;;;;9.95;4.55;;;7.60;99.90;;;;;;5123382;28;20555;-43
2024/01/01 06:05:17;;;;;;;15.18;4.88;;;7.60;99.90;;;;;;5124570;28;20461;-43
2024/01/01 06:07:43;;;;;;;10.68;3.88;;;7.60;99.90;;;;;;5123676;28;20019;-44
2024/01/01 06:10:09;;;;;;;12.85;4.93;;;7.60;99.90;;;;;;5123152;28;20060;-43
2024/01/01 06:12:34;;;;;;;12.68;4.80;;;7.60;99.90;;;;;;5124483;28;20396;-43
2024/01/01 06:15:00;;;;;;;10.63;4.07;;;7.60;99.90;;;;;;5123718;28;20030;-44
2024/01/01 06:17:26;;;;;;;12.88;5.07;;;7.60;99.90;;;;;;5124137;28;20038;-43
2024/01/01 06:19:51;;;;;;;10.07;4.47;;;7.60;99.90;;;;;;5124173;28;20448;-42
2024/01/01 06:22:17;;;;;;;10.80;4.60;;;7.70;99.90;;;;;;5125059;28;20016;-42
2024/01/01 06:24:43;;;;;;;8.68;5.18;;;7.70;99.90;;;;;;5091416;28;20118;-45
2024/01/01 06:27:08;;;;;;;12.07;4.82;;;7.70;99.90;;;;;;5107837;28;20031;-43
2024/01/01 06:29:34;;;;;;;10.05;4.55;;;7.80;99.90;;;;;;5108135;28;20024;-43
2024/01/01 06:32:00;;;;;;;13.57;4.85;;;7.70;99.90;;;;;;5109290;28;20469;-42
2024/01/01 06:34:26;;;;;;;12.10;5.15;;;7.70;99.90;;;;;;5088607;28;20032;-45
2024/01/01 06:36:51;;;;;;;11.45;4.68;;;7.80;99.90;;;;;;5108010;28;20198;-42
2024/01/01 06:39:17;;;;;;;11.50;3.97;;;7.80;99.90;;;;;;5094458;28;20327;-42
2024/01/01 06:41:43;;;;;;;12.45;4.95;;;7.80;99.90;;;;;;5090491;28;20412;-42
2024/01/01 06:44:08;;;;;;;7.95;4.30;;;7.80;99.90;;;;;;5098564;28;20487;-44
2024/01/01 06:46:34;;;;;;;10.52;4.25;;;7.80;99.90;;;;;;5115891;28;20024;-43
2024/01/01 06:49:00;;;;;;;9.85;4.85;;;7.90;99.90;;;;;;5094320;28;20023;-42
2024/01/01 06:51:25;;;;;;;12.23;4.18;;;7.80;99.90;;;;;;5104899;28;20024;-42
2024/01/01 06:53:51;;;;;;;12.05;4.18;;;7.80;99.90;;;;;;5110721;28;20031;-42
2024/01/01 06:56:16;;;;;;;12.43;4.18;;;7.80;99.90;;;;;;5102361;28;20030;-42
2024/01/01 06:58:42;;;;;;;12.48;4.65;;;7.80;99.90;;;;;;5092536;28;20072;-42
2024/01/01 07:01:08;;;;;;;16.48;4.97;;;7.80;99.90;;;;;;5110819;28;20020;-42
2024/01/01 07:03:34;;;;;;;10.38;4.43;;;7.80;99.90;;;;;;5110831;28;20143;-42
2024/01/01 07:05:59;;;;;;;9.20;4.47;;;7.70;99.90;;;;;;5110374;28;20020;-42
2024/01/01 07:08:25;;;;;;;12.63;5.50;;;7.70;99.90;;;;;;5110320;28;20034;-43
2024/01/01 07:10:51;;;;;;;11.07;4.82;;;7.80;99.90;;;;;;5102463;28;20069;-42
2024/01/01 07:13:17;;;;;;;14.13;5.22;;;7.80;99.90;;;;;;5072357;28;20016;-42
2024/01/01 07:15:44;;;;;;;20.42;6.22;;;7.80;99.90;;;;;;5090461;28;20439;-43
2024/01/01 07:18:09;;;;;;;15.70;4.78;;;7.80;99.90;;;;;;5089976;28;20517;-42
2024/01/01 07:20:35;;;;;;;10.45;5.20;;;7.90;99.90;;;;;;5090447;28;20034;-42
2024/01/01 07:23:01;;;;;;;13.95;5.35;;;7.90;99.90;;;;;;5098236;28;20017;-44
2024/01/01 07:25:26;;;;;;;11.40;5.10;;;7.90;99.90;;;;;;5090406;28;20385;-42
2024/01/01 07:27:53;;;;;;;16.17;5.68;;;7.90;99.90;;;;;;5090190;28;20032;-41
2024/01/01 07:30:19;;;;;;;11.88;5.45;;;7.90;99.90;;;;;;5090056;28;20047;-42
2024/01/01 07:32:45;;;;;;;12.65;5.57;;;8.00;99.90;;;;;;5072168;28;20074;-42
2024/01/01 07:35:10;;;;;;;16.13;6.85;;;7.90;99.90;;;;;;5090163;28;20028;-42
2024/01/01 07:37:36;;;;;;;11.48;5.72;;;7.90;99.90;;;;;;5089485;28;20032;-42
2024/01/01 07:40:02;;;;;;;9.82;5.28;;;8.00;99.90;;;;;;5071884;28;20024;-42
2024/01/01 07:42:28;;;;;;;17.08;6.32;;;8.00;99.90;;;;;;5090585;28;20050;-42
2024/01/01 07:44:53;;;;;;;14.88;6.88;;;7.90;99.90;;;;;;5072203;28;20352;-43
2024/01/01 07:47:19;;;;;;;18.45;7.88;;;7.90;99.90;;;;;;5063626;28;20035;-43
2024/01/01 07:49:45;;;;;;;17.30;7.20;;;7.90;99.90;;;;;;5072030;28;20047;-43
2024/01/01 07:52:14;;;;;;;16.25;7.38;;;8.00;99.90;;;;;;5093078;28;20026;-42
2024/01/01 07:54:40;;;;;;;17.23;7.97;;;8.00;99.90;;;;;;5095813;28;20024;-42
2024/01/01 07:57:06;;;;;;;13.02;7.20;;;7.90;99.90;;;;;;5090134;28;20115;-44
2024/01/01 07:59:32;;;;;;;13.63;6.93;;;8.00;99.90;;;;;;5090474;28;20027;-43
2024/01/01 08:01:58;;;;;;;19.30;7.38;;;7.90;99.90;;;;;;5090717;28;20016;-42
2024/01/01 08:04:23;;;;;;;15.93;7.00;;;7.90;99.90;;;;;;5091087;28;20522;-43
2024/01/01 08:06:49;;;;;;;21.15;7.63;;;8.00;99.90;;;;;;5090256;28;20020;-44
2024/01/01 08:09:15;;;;;;;15.02;6.30;;;8.00;99.90;;;;;;5090094;28;20029;-42
2024/01/01 08:11:40;;;;;;;12.27;6.40;;;8.00;99.90;;;;;;5090884;28;20051;-42
2024/01/01 08:14:06;;;;;;;14.82;6.45;;;8.00;99.90;;;;;;5091332;28;20035;-42
2024/01/01 08:16:34;;;;;;;14.35;6.50;;;8.00;99.90;;;;;;5090667;28;20099;-43
2024/01/01 08:18:59;;;;;;;18.55;6.88;;;8.00;99.90;;;;;;5090916;28;20027;-42
2024/01/01 08:21:25;;;;;;;14.82;6.43;;;8.00;99.90;;;;;;5090280;28;20032;-42
2024/01/01 08:23:51;;;;;;;13.77;6.43;;;8.00;99.90;;;;;;5089790;28;20020;-42
2024/01/01 08:26:16;;;;;;;12.95;6.60;;;8.00;99.90;;;;;;5072074;28;20445;-42
2024/01/01 08:28:42;;;;;;;12.23;5.97;;;8.00;99.90;;;;;;5090417;28;20070;-42
2024/01/01 08:31:08;;;;;;;13.38;6.10;;;8.00;99.90;;;;;;5091165;28;20457;-42
2024/01/01 08:33:33;;;;;;;17.42;6.05;;;8.00;99.90;;;;;;5090882;28;20028;-42
2024/01/01 08:35:59;;;;;;;10.25;6.07;;;8.00;99.90;;;;;;5090971;28;20016;-43
2024/01/01 08:38:25;;;;;;;14.32;6.95;;;8.00;99.90;;;;;;5090044;28;20094;-42
2024/01/01 08:40:51;;;;;;;13.45;6.25;;;8.00;99.90;;;;;;5096525;28;20479;-42
2024/01/01 08:43:16;;;;;;;11.48;5.45;;;8.00;99.90;;;;;;5099039;28;20020;-42
2024/01/01 08:45:42;;;;;;;20.20;6.07;;;8.00;99.90;;;;;;5098918;28;20381;-41
2024/01/01 08:48:08;;;;;;;13.40;5.22;;;8.00;99.90;;;;;;5098958;28;20493;-43
2024/01/01 08:50:33;;;;;;;14.20;5.60;;;8.00;99.90;;;;;;5072577;28;20473;-43
2024/01/01 08:52:59;;;;;;;13.93;5.97;;;8.10;99.90;;;;;;5091243;28;20024;-43
2024/01/01 08:55:25;;;;;;;16.33;6.05;;;8.10;99.90;;;;;;5090417;28;20027;-42
2024/01/01 08:57:51;;;;;;;13.48;5.60;;;8.20;99.90;;;;;;5089892;28;20016;-44
2024/01/01 09:00:17;;;;;;;12.13;4.63;;;8.20;99.90;;;;;;5091267;28;20044;-46
2024/01/01 09:02:43;;;;;;;12.68;4.80;;;8.20;99.90;;;;;;5090519;28;20024;-42
2024/01/01 09:05:08;;;;;;;14.32;5.32;;;8.20;99.90;;;;;;5091389;28;20023;-44
2024/01/01 09:07:35;;;;;;;18.33;5.78;;;8.20;99.90;;;;;;5090253;28;20016;-43
2024/01/01 09:10:02;;;;;;;11.25;4.90;;;8.20;99.90;;;;;;5091720;28;20043;-41
2024/01/01 09:12:28;;;;;;;8.70;4.53;;;8.20;99.90;;;;;;5090193;28;20103;-45
2024/01/01 09:14:55;;;;;;;15.63;5.32;;;8.20;99.90;;;;;;5090608;28;20020;-46
2024/01/01 09:17:20;;;;;;;17.88;5.72;;;8.20;99.90;;;;;;5090951;28;20042;-46
2024/01/01 09:19:46;;;;;;;14.65;5.40;;;8.20;99.90;;;;;;5089803;28;20473;-44
2024/01/01 09:22:12;;;;;;;15.38;5.38;;;8.20;99.90;;;;;;5089844;28;20027;-44
2024/01/01 09:24:38;;;;;;;11.80;5.28;;;8.20;99.90;;;;;;5087544;28;20031;-44
2024/01/01 09:27:04;;;;;;;14.90;4.82;;;8.20;99.90;;;;;;5088760;28;20342;-42
2024/01/01 09:29:29;;;;;;;14.40;5.10;;;8.10;99.90;;;;;;5070354;28;20069;-46
2024/01/01 09:31:55;;;;;;;13.65;6.22;;;8.10;99.90;;;;;;5089545;28;20645;-43
2024/01/01 09:34:21;;;;;;;17.08;5.40;;;8.10;99.90;;;;;;5089560;28;20465;-44
2024/01/01 09:36:47;;;;;;;10.70;4.47;;;8.10;99.90;;;;;;5089176;28;20028;-42
2024/01/01 09:39:12;;;;;;;12.13;4.68;;;8.10;99.90;;;;;;5090623;28;20027;-43
2024/01/01 09:41:38;;;;;;;18.63;5.57;;;8.20;99.90;;;;;;5090884;28;20389;-42
2024/01/01 09:44:04;;;;;;;12.25;4.15;;;8.20;99.90;;;;;;5092245;28;20021;-43
2024/01/01 09:46:33;;;;;;;15.60;5.75;;;8.30;99.90;;;;;;5090367;28;20024;-43
2024/01/01 09:48:59;;;;;;;13.32;4.85;;;8.40;99.90;;;;;;5072811;28;20020;-46
2024/01/01 09:51:26;;;;;;;15.95;4.72;;;8.50;99.90;;;;;;5091024;28;20020;-43
2024/01/01 09:53:52;;;;;;;16.58;4.97;;;8.50;99.90;;;;;;5090688;28;20469;-42
2024/01/01 09:56:18;;;;;;;19.20;4.97;;;8.50;99.90;;;;;;5091225;28;20035;-45
2024/01/01 09:58:45;;;;;;;10.30;3.90;;;8.50;99.90;;;;;;5072593;28;20024;-47
2024/01/01 10:01:19;;;;;;;15.38;4.47;;;8.60;99.90;;;;;;5093235;28;20028;-46
2024/01/01 10:04:09;;;;;;;11.23;5.05;;;8.70;99.90;;;;;;5090822;28;20036;-43
2024/01/01 10:06:36;;;;;;;16.03;3.93;;;8.70;99.90;;;;;;5087535;28;20161;-43
2024/01/01 10:09:10;;;;;;;12.65;4.38;;;8.80;99.90;;;;;;5087856;28;20031;-42
2024/01/01 10:11:42;;;;;;;16.85;4.68;;;8.80;99.90;;;;;;5090828;28;20024;-47
2024/01/01 10:14:08;;;;;;;16.90;4.35;;;8.90;99.90;;;;;;5093462;28;20048;-43
2024/01/01 10:16:34;;;;;;;12.15;3.95;;;9.00;99.90;;;;;;5091165;28;20052;-45
2024/01/01 10:19:01;;;;;;;16.67;5.97;;;9.10;99.90;;;;;;5091877;28;20089;-42
2024/01/01 10:21:31;;;;;;;14.15;4.63;;;9.20;99.90;;;;;;5091333;28;20012;-44
2024/01/01 10:23:58;;;;;;;12.80;4.50;;;9.30;99.90;;;;;;5093623;28;20027;-43
2024/01/01 10:26:24;;;;;;;12.10;3.88;;;9.40;99.90;;;;;;5095634;28;20622;-43
2024/01/01 10:28:51;;;;;;;10.68;3.70;;;9.50;99.90;;;;;;5076770;28;20255;-44
2024/01/01 10:31:17;;;;;;;10.82;3.33;;;9.40;99.90;;;;;;5096679;28;20019;-43
2024/01/01 10:33:44;;;;;;;8.68;3.20;;;9.50;99.90;;;;;;5095269;28;20428;-42
2024/01/01 10:36:12;;;;;;;15.75;4.05;;;9.50;99.90;;;;;;5096768;28;20085;-42
2024/01/01 10:38:39;;;;;;;9.45;3.65;;;9.50;99.90;;;;;;5076739;28;20425;-41
2024/01/01 10:41:06;;;;;;;11.23;3.92;;;9.60;99.90;;;;;;5096697;28;20063;-44
2024/01/01 10:43:33;;;;;;;9.52;3.03;;;9.60;99.90;;;;;;5095225;28;20022;-45
2024/01/01 10:46:04;;;;;;;10.88;2.95;;;9.50;99.90;;;;;;5096114;28;20103;-43
2024/01/01 10:48:33;;;;;;;;;;;9.60;99.90;;;;;;5096324;28;20078;-43
2024/01/01 10:51:27;;;;;;;3.97;1.88;;;9.60;99.90;;;;;;5096540;28;19949;-45
2024/01/01 10:53:59;;;;;;;9.10;3.50;;;9.50;99.90;;;;;;5095484;28;20320;-42
2024/01/01 10:56:41;;;;;;;11.18;3.53;;;9.50;99.90;;;;;;5096116;28;20027;-42
2024/01/01 10:59:16;;;;;;;11.15;3.40;;;9.60;99.90;;;;;;5097395;28;20420;-42
2024/01/01 11:01:43;;;;;;;11.48;3.55;;;9.60;99.90;;;;;;5090222;28;20532;-44
2024/01/01 11:04:11;;;;;;;12.02;3.05;;;9.70;99.90;;;;;;5097732;28;20099;-42
2024/01/01 11:06:43;;;;;;;13.90;3.53;;;9.80;99.90;;;;;;5083046;28;20055;-44
2024/01/01 11:09:23;;;;;;;11.63;3.10;;;9.70;99.90;;;;;;5093207;28;20020;-42
2024/01/01 11:11:50;;;;;;;10.70;2.95;;;9.70;99.90;;;;;;5094913;28;20020;-44
2024/01/01 11:14:28;;;;;;;12.48;3.60;;;9.60;99.90;;;;;;5097468;28;20024;-43
2024/01/01 11:16:55;;;;;;;7.85;3.15;;;9.50;99.90;;;;;;5095415;28;20023;-42
2024/01/01 11:19:41;;;;;;;13.23;3.08;;;9.50;99.90;;;;;;5096838;28;20020;-42
2024/01/01 11:22:18;;;;;;;10.85;2.95;;;9.40;99.90;;;;;;5097328;28;20421;-45
2024/01/01 11:24:45;;;;;;;9.23;2.60;;;9.40;99.90;;;;;;5093166;28;20112;-42
2024/01/01 11:27:31;;;;;;;15.82;2.67;;;9.30;99.90;;;;;;5097073;28;20127;-43
2024/01/01 11:30:06;;;;;;;13.07;3.80;;;9.20;99.90;;;;;;5102889;28;20062;-45
2024/01/01 11:32:35;;;;;;;10.05;2.97;;;9.20;99.90;;;;;;5101777;28;20476;-42
2024/01/01 11:35:08;;;;;;;9.45;2.50;;;9.10;99.90;;;;;;5100699;28;20027;-44
2024/01/01 11:37:35;;;;;;;8.63;2.97;;;9.10;99.90;;;;;;5091511;28;20122;-43
2024/01/01 11:40:04;;;;;;;6.82;2.10;;;9.10;99.90;;;;;;5089283;28;20341;-47
2024/01/01 11:42:30;;;;;;;7.95;2.63;;;9.00;99.90;;;;;;5096037;28;20035;-43
2024/01/01 11:45:16;;;;;;;8.23;2.33;;;9.00;99.90;;;;;;5095760;28;20043;-45
2024/01/01 11:47:43;;;;;;;9.50;3.15;;;9.00;99.90;;;;;;5094742;28;20047;-43
2024/01/01 11:50:10;;;;;;;9.07;2.80;;;8.90;99.90;;;;;;5097499;28;20032;-43
2024/01/01 11:52:36;;;;;;;14.02;2.90;;;8.90;99.90;;;;;;5077060;28;20115;-43
2024/01/01 11:55:02;;;;;;;7.68;2.30;;;8.90;99.90;;;;;;5096249;28;20481;-43
2024/01/01 11:57:28;;;;;;;11.15;2.58;;;8.80;99.90;;;;;;5096343;28;20023;-42
2024/01/01 11:59:54;;;;;;;7.65;2.15;;;8.80;99.90;;;;;;5074294;28;20024;-44
2024/01/01 12:02:21;;;;;;;11.05;2.58;;;8.90;99.90;;;;;;5098003;28;20346;-43
2024/01/01 12:04:50;;;;;;;10.57;3.13;;;8.90;99.90;;;;;;5094706;28;20020;-42
2024/01/01 12:07:33;;;;;;;8.82;2.35;;;8.80;99.90;;;;;;5097587;28;20488;-43
2024/01/01 12:10:10;;;;;;;9.15;2.22;;;8.80;99.90;;;;;;5096276;28;20020;-43
2024/01/01 12:12:36;;;;;;;7.45;2.30;;;8.80;99.90;;;;;;5095711;28;20058;-42
2024/01/01 12:15:12;;;;;;;9.50;2.42;;;8.80;99.90;;;;;;5096823;28;20358;-43
2024/01/01 12:17:46;;;;;;;8.80;2.33;;;8.80;99.90;;;;;;5094992;28;20134;-42
2024/01/01 12:20:16;;;;;;;10.90;2.50;;;8.80;99.90;;;;;;5097816;28;20024;-42
2024/01/01 12:22:42;;;;;;;6.97;1.55;;;8.70;99.90;;;;;;5090935;28;20024;-45
2024/01/01 12:25:16;;;;;;;12.57;2.42;;;8.70;99.90;;;;;;5098889;28;20020;-42
2024/01/01 12:27:43;;;;;;;8.15;1.80;;;8.70;99.90;;;;;;5091480;28;20111;-44
2024/01/01 12:30:22;;;;;;;10.63;4.20;;;8.70;99.90;;;;;;5097524;28;20358;-42
2024/01/01 12:32:48;;;;;;;15.10;1.95;;;8.70;99.90;;;;;;5091313;28;20441;-42
2024/01/01 12:35:13;;;;;;;7.20;2.53;;;8.60;99.90;;;;;;5098138;28;20047;-43
2024/01/01 12:37:39;;;;;;;12.93;2.55;;;8.60;99.90;;;;;;5094762;28;20081;-46
2024/01/01 12:40:05;;;;;;;4.40;1.80;;;8.60;99.90;;;;;;5097324;28;20016;-45
2024/01/01 12:42:33;;;;;;;8.25;2.15;;;8.60;99.90;;;;;;5096677;28;20034;-44
2024/01/01 12:44:58;;;;;;;11.27;2.65;;;8.60;99.90;;;;;;5096373;28;20381;-43
2024/01/01 12:47:24;;;;;;;6.40;2.10;;;8.60;99.90;;;;;;5096599;28;20034;-43
2024/01/01 12:49:50;;;;;;;5.18;1.30;;;8.70;99.90;;;;;;5095504;28;20020;-47